Time;durP1;ratioP1;P1;durP2;ratioP2;P2;SDS_P1;SDS_P2;PMS_P1;PMS_P2;Temp;Humidity;BMP_temperature;BMP_pressure;BME280_temperature;BME280_humidity;BME280_pressure;Samples;Min_cycle;Max_cycle;Signal;HPM_P1;HPM_P2
2021/10/03 03:25:35;;;;;;;11.30;7.10;;;17.80;59.80;;;;;;6064654;23;20455;-83
2021/10/03 03:33:42;;;;;;;10.40;4.07;;;17.80;58.40;;;;;;6071171;23;20433;-76
2021/10/03 04:24:37;;;;;;;10.43;5.30;;;18.30;52.50;;;;;;5989851;24;20436;-90
2021/10/03 04:59:53;;;;;;;7.80;5.00;;;18.50;50.80;;;;;;5978188;23;20962;-87
2021/10/03 05:03:03;;;;;;;;;;;;;;;;;;;;;
2021/10/03 05:05:42;;;;;;;10.43;5.30;;;18.50;49.80;;;;;;6004047;23;20561;-87
2021/10/03 05:08:16;;;;;;;9.87;5.93;;;18.60;49.80;;;;;;6041389;23;20408;-85
2021/10/03 05:10:50;;;;;;;9.30;4.97;;;18.50;50.40;;;;;;6040941;23;20462;-87
2021/10/03 05:13:23;;;;;;;10.63;5.93;;;18.50;51.10;;;;;;6050375;23;20411;-88
2021/10/03 05:16:06;;;;;;;9.87;5.43;;;18.60;49.60;;;;;;6048381;23;20448;-86
2021/10/03 05:18:48;;;;;;;9.80;5.80;;;18.60;49.60;;;;;;6040394;23;20441;-90
2021/10/03 05:21:40;;;;;;;7.80;5.27;;;18.60;50.70;;;;;;6035016;23;20496;-86
2021/10/03 05:37:30;;;;;;;;;;;;;;;;;;;;;
2021/10/03 05:46:57;;;;;;;9.13;5.50;;;18.60;51.90;;;;;;5786558;24;20451;-81
2021/10/03 05:49:27;;;;;;;8.20;4.70;;;18.70;51.60;;;;;;5872291;24;20494;-84
2021/10/03 05:56:02;;;;;;;9.43;4.80;;;18.70;52.00;;;;;;5923550;24;20466;-86
2021/10/03 06:11:56;;;;;;;13.87;5.03;;;18.70;53.60;;;;;;5808929;24;20414;-87
2021/10/03 06:14:27;;;;;;;9.90;5.70;;;18.50;55.20;;;;;;5898275;24;20445;-87
2021/10/03 06:16:58;;;;;;;8.33;5.70;;;18.40;54.00;;;;;;5908266;24;20493;-87
2021/10/03 06:23:54;;;;;;;6.43;4.57;;;18.50;55.20;;;;;;5851995;24;20418;-85
2021/10/03 06:29:41;;;;;;;8.43;4.53;;;18.40;54.80;;;;;;6025200;23;20522;-87
2021/10/03 06:32:14;;;;;;;17.33;6.30;;;18.50;54.90;;;;;;6079806;23;20411;-87
2021/10/03 06:34:51;;;;;;;11.30;5.10;;;18.50;54.30;;;;;;6069322;23;20517;-84
2021/10/03 06:37:18;;;;;;;8.40;5.40;;;18.50;55.40;;;;;;6079070;23;20467;-88
2021/10/03 06:39:56;;;;;;;8.47;5.20;;;18.50;55.50;;;;;;6079222;23;20450;-85
2021/10/03 06:42:24;;;;;;;11.50;5.43;;;18.40;56.10;;;;;;6079169;23;20468;-87
2021/10/03 06:44:54;;;;;;;7.80;5.03;;;18.50;55.90;;;;;;6067805;23;20406;-86
2021/10/03 06:47:21;;;;;;;11.70;5.03;;;18.40;56.40;;;;;;6078941;23;20431;-89
2021/10/03 06:49:59;;;;;;;10.63;6.03;;;18.30;60.80;;;;;;6079166;23;20416;-85
2021/10/03 06:52:26;;;;;;;11.20;5.87;;;18.20;58.50;;;;;;6069343;23;20940;-87
2021/10/03 06:54:53;;;;;;;10.90;6.90;;;18.20;58.70;;;;;;6069739;23;20448;-86
2021/10/03 06:57:20;;;;;;;12.03;5.03;;;18.20;60.10;;;;;;6078954;23;20506;-87
2021/10/03 06:59:47;;;;;;;9.73;6.50;;;18.20;60.20;;;;;;6078499;23;20912;-96
2021/10/03 07:02:19;;;;;;;7.93;5.80;;;18.10;61.30;;;;;;6079912;23;20448;-91
2021/10/03 07:14:38;;;;;;;15.50;6.80;;;17.90;63.80;;;;;;5976271;23;20474;-86
2021/10/03 07:17:57;;;;;;;8.80;6.40;;;17.90;66.30;;;;;;6078431;23;20463;-86
2021/10/03 07:20:44;;;;;;;;;;;;;;;;;;;;;
2021/10/03 07:34:29;;;;;;;10.10;7.37;;;17.70;69.30;;;;;;6041427;23;20457;-86
2021/10/03 09:28:20;;;;;;;9.50;6.10;;;18.40;70.00;;;;;;6067435;23;20520;-85
2021/10/03 10:27:02;;;;;;;9.20;4.90;;;19.20;66.80;;;;;;6118072;23;20452;-93
2021/10/03 16:18:33;;;;;;;;;;;;;;;;;;;;;
2021/10/03 16:21:40;;;;;;;;;;;;;;;;;;;;;
2021/10/03 16:24:46;;;;;;;23.23;22.13;;;11.60;99.90;;;;;;6095457;23;20412;-88
2021/10/03 16:27:38;;;;;;;14.67;13.97;;;11.50;99.90;;;;;;6107660;23;20440;-86
2021/10/03 16:33:04;;;;;;;30.20;29.00;;;11.60;99.90;;;;;;6097763;23;20495;-87
2021/10/03 16:38:44;;;;;;;48.80;47.00;;;11.70;99.90;;;;;;6076398;23;20418;-86
2021/10/03 16:41:14;;;;;;;64.67;62.37;;;11.80;99.90;;;;;;6094457;23;20920;-86
2021/10/03 16:46:46;;;;;;;;;;;;;;;;;;;;;
2021/10/03 16:49:44;;;;;;;31.23;29.90;;;11.80;99.90;;;;;;6093685;23;20426;-87
2021/10/03 16:52:16;;;;;;;20.23;19.33;;;11.80;99.90;;;;;;5990058;24;20483;-88
2021/10/03 16:54:47;;;;;;;32.63;31.43;;;11.70;99.90;;;;;;6063559;23;20419;-84
2021/10/03 17:10:15;;;;;;;72.83;70.23;;;11.80;99.90;;;;;;5895557;24;20467;-84
2021/10/03 17:12:54;;;;;;;83.50;80.50;;;11.80;99.90;;;;;;5912139;24;20789;-87
2021/10/03 17:15:24;;;;;;;78.70;75.90;;;11.80;99.90;;;;;;6104770;23;20978;-83
2021/10/03 17:18:11;;;;;;;107.07;103.27;;;11.70;99.90;;;;;;6105852;23;20467;-84
2021/10/03 17:20:44;;;;;;;130.03;125.23;;;11.70;99.90;;;;;;6105991;23;20443;-86
2021/10/03 17:23:38;;;;;;;;;;;;;;;;;;;;;
2021/10/03 17:26:31;;;;;;;161.18;154.98;;;11.80;99.90;;;;;;6089470;23;20460;-87
2021/10/03 17:29:29;;;;;;;;;;;;;;;;;;;;;
2021/10/03 17:32:22;;;;;;;137.03;131.73;;;12.10;99.90;;;;;;6108765;23;20699;-85
2021/10/03 17:37:49;;;;;;;142.47;137.17;;;12.20;99.90;;;;;;6088592;23;20448;-87
2021/10/03 17:40:20;;;;;;;132.70;127.90;;;12.10;99.90;;;;;;6108389;23;20470;-87
2021/10/03 17:46:39;;;;;;;139.90;134.50;;;12.20;99.90;;;;;;6097103;23;20755;-86
2021/10/03 17:49:19;;;;;;;133.37;128.07;;;12.20;99.90;;;;;;6109223;23;20426;-87
2021/10/03 17:51:48;;;;;;;115.67;111.37;;;12.10;99.90;;;;;;6108698;23;20439;-83
2021/10/03 17:54:15;;;;;;;104.23;100.43;;;12.10;99.90;;;;;;6108458;23;20440;-87
2021/10/03 17:56:44;;;;;;;112.60;108.40;;;12.10;99.90;;;;;;6099502;23;20463;-86
2021/10/03 17:59:12;;;;;;;112.63;108.43;;;12.10;99.90;;;;;;6107226;23;20446;-85
2021/10/03 18:01:41;;;;;;;113.87;109.67;;;12.10;99.90;;;;;;6109159;23;20495;-90
2021/10/03 18:04:10;;;;;;;110.63;106.53;;;12.00;99.90;;;;;;6098864;23;21032;-84
2021/10/03 18:09:53;;;;;;;120.87;116.23;;;12.10;99.90;;;;;;6105539;23;20793;-86
2021/10/03 18:12:27;;;;;;;106.67;102.70;;;12.10;99.90;;;;;;6107802;23;20415;-85
2021/10/03 18:15:01;;;;;;;110.50;106.50;;;12.10;99.90;;;;;;6107255;23;20415;-88
2021/10/03 18:17:39;;;;;;;117.83;113.40;;;12.10;99.90;;;;;;6101201;23;20431;-88
2021/10/03 18:20:17;;;;;;;44.87;42.83;;;12.10;99.90;;;;;;6108535;23;20412;-87
2021/10/03 18:23:04;;;;;;;23.47;22.10;;;12.00;99.90;;;;;;6107556;23;20421;-88
2021/10/03 18:25:35;;;;;;;22.57;21.27;;;12.10;99.90;;;;;;6107948;23;20416;-88
2021/10/03 18:28:23;;;;;;;22.63;21.53;;;11.90;99.90;;;;;;6107789;23;20518;-89
2021/10/03 18:31:10;;;;;;;21.70;20.60;;;12.00;99.90;;;;;;6018129;23;20418;-89
2021/10/03 18:33:50;;;;;;;17.27;16.37;;;11.90;99.90;;;;;;6098856;23;20431;-88
2021/10/03 18:36:22;;;;;;;15.60;14.73;;;11.80;99.90;;;;;;6108438;23;20423;-87
2021/10/03 18:38:54;;;;;;;17.63;16.77;;;11.80;99.90;;;;;;6109603;23;20728;-88
2021/10/03 18:41:37;;;;;;;20.33;19.33;;;11.90;99.90;;;;;;6108481;23;20408;-85
2021/10/03 18:44:23;;;;;;;20.57;19.57;;;11.90;99.90;;;;;;6106871;23;20416;-86
2021/10/03 18:50:17;;;;;;;15.80;15.00;;;11.80;99.90;;;;;;6096583;23;20515;-86
2021/10/03 18:53:04;;;;;;;13.80;13.10;;;11.80;99.90;;;;;;6080059;23;20422;-86
2021/10/03 18:55:53;;;;;;;14.93;13.93;;;11.70;99.90;;;;;;6108147;23;20489;-88
2021/10/03 18:58:26;;;;;;;11.97;11.17;;;11.70;99.90;;;;;;6098162;23;20896;-87
2021/10/03 19:01:13;;;;;;;8.47;7.77;;;11.80;99.90;;;;;;6096780;23;20419;-85
2021/10/03 19:03:44;;;;;;;8.20;7.50;;;11.70;99.90;;;;;;6108375;23;20408;-89
2021/10/03 19:06:16;;;;;;;6.90;6.20;;;11.70;99.90;;;;;;6098057;23;20408;-85
2021/10/03 19:09:00;;;;;;;6.90;6.20;;;11.80;99.90;;;;;;6098347;23;20805;-85
2021/10/03 19:11:33;;;;;;;7.13;6.53;;;11.80;99.90;;;;;;6107640;23;20926;-88
2021/10/03 19:14:02;;;;;;;7.17;6.47;;;11.70;99.90;;;;;;6106246;23;20440;-88
2021/10/03 19:16:37;;;;;;;6.37;5.80;;;11.70;99.90;;;;;;6097786;23;20500;-86
2021/10/03 19:19:31;;;;;;;;;;;;;;;;;;;;;
2021/10/03 19:22:01;;;;;;;5.57;5.07;;;11.70;99.90;;;;;;6104788;23;20414;-89
2021/10/03 19:24:52;;;;;;;4.70;4.17;;;11.80;99.90;;;;;;6098332;23;20792;-88
2021/10/03 19:27:33;;;;;;;6.90;4.43;;;11.70;99.90;;;;;;6097502;23;20447;-88
2021/10/03 19:33:46;;;;;;;4.67;4.20;;;11.70;99.90;;;;;;5931159;24;20554;-85
2021/10/03 19:36:28;;;;;;;6.50;4.70;;;11.70;99.90;;;;;;5981314;24;20419;-87
2021/10/03 19:39:14;;;;;;;4.40;3.87;;;11.70;99.90;;;;;;5981326;24;20411;-88
2021/10/03 19:42:10;;;;;;;6.70;4.50;;;11.70;99.90;;;;;;6098517;23;20439;-86
2021/10/03 19:55:48;;;;;;;5.37;3.70;;;11.60;99.90;;;;;;5924381;24;20427;-89
2021/10/03 19:59:07;;;;;;;3.40;3.10;;;11.90;99.90;;;;;;5990180;24;20513;-89
